createdAt,value
2023-03-27T01:04:40.168Z,7.41
2023-03-27T01:11:17.812Z,6.95
2023-03-27T01:13:56.184Z,6.56
2023-03-27T01:16:25.235Z,6.67
2023-03-27T01:18:58.897Z,6.40
2023-03-27T01:21:39.869Z,6.32
2023-03-27T01:24:26.647Z,6.18
2023-03-27T01:26:59.842Z,5.91
2023-03-27T01:29:32.007Z,5.57
2023-03-27T01:32:22.262Z,5.07
2023-03-27T01:35:01.110Z,5.12
2023-03-27T01:37:38.969Z,4.90
2023-03-27T01:40:12.736Z,4.58
2023-03-27T01:42:45.860Z,4.62
2023-03-27T01:45:17.988Z,4.21
2023-03-27T01:47:47.929Z,4.42
2023-03-27T01:50:20.149Z,4.08
2023-03-27T01:52:51.669Z,4.08
2023-03-27T01:55:24.090Z,3.95
2023-03-27T01:58:00.441Z,3.84
2023-03-27T02:00:28.427Z,3.62
2023-03-27T02:03:19.132Z,3.43
2023-03-27T02:05:49.018Z,3.51
2023-03-27T02:08:18.361Z,3.63
2023-03-27T02:10:49.389Z,3.78
2023-03-27T02:13:19.701Z,3.84
2023-03-27T02:15:48.721Z,3.85
2023-03-27T02:18:19.067Z,4.02
2023-03-27T02:20:46.560Z,3.62
2023-03-27T02:23:13.896Z,3.51
2023-03-27T02:25:42.154Z,3.63
2023-03-27T02:28:15.483Z,3.61
2023-03-27T02:30:47.674Z,3.65
2023-03-27T02:33:38.169Z,3.80
2023-03-27T02:36:11.390Z,3.81
2023-03-27T02:38:41.756Z,3.72
2023-03-27T02:41:12.260Z,3.58
2023-03-27T02:43:44.353Z,3.49
2023-03-27T02:46:15.260Z,3.42
2023-03-27T02:48:45.114Z,3.40
2023-03-27T02:51:15.074Z,3.47
2023-03-27T02:53:46.768Z,3.69
2023-03-27T02:56:15.896Z,3.68
2023-03-27T02:58:47.338Z,3.52
2023-03-27T03:01:17.292Z,3.35
2023-03-27T03:03:48.931Z,3.45
2023-03-27T03:06:16.228Z,3.72
2023-03-27T03:08:46.665Z,3.90
2023-03-27T03:11:15.577Z,3.74
2023-03-27T03:13:42.922Z,3.76
2023-03-27T03:16:12.095Z,3.76
2023-03-27T03:18:39.426Z,3.72
2023-03-27T03:21:06.994Z,3.91
2023-03-27T03:23:34.369Z,3.94
2023-03-27T03:26:02.860Z,3.80
2023-03-27T03:28:30.481Z,3.87
2023-03-27T03:30:58.961Z,4.00
2023-03-27T03:33:28.007Z,3.84
2023-03-27T03:35:58.886Z,3.94
2023-03-27T03:38:26.577Z,4.22
2023-03-27T03:40:55.046Z,4.10
2023-03-27T03:43:22.958Z,3.86
2023-03-27T03:45:50.794Z,3.93
2023-03-27T03:48:18.462Z,3.78
2023-03-27T03:50:47.766Z,3.80
2023-03-27T03:53:15.246Z,4.00
2023-03-27T03:55:42.776Z,3.80
2023-03-27T03:58:10.284Z,3.70
2023-03-27T04:00:38.935Z,3.90
2023-03-27T04:03:07.276Z,4.08
2023-03-27T04:05:35.254Z,4.15
2023-03-27T04:08:07.065Z,4.29
2023-03-27T04:10:34.913Z,4.14
2023-03-27T04:13:02.200Z,4.07
2023-03-27T04:15:29.520Z,4.26
2023-03-27T04:17:57.857Z,4.22
2023-03-27T04:20:26.468Z,4.23
2023-03-27T04:22:54.468Z,4.33
2023-03-27T04:25:25.152Z,4.45
2023-03-27T04:27:52.833Z,4.56
2023-03-27T04:30:23.190Z,4.55
2023-03-27T04:32:50.928Z,4.53
2023-03-27T04:35:19.834Z,4.58
2023-03-27T04:37:48.436Z,4.46
2023-03-27T04:40:17.868Z,4.37
2023-03-27T04:42:46.670Z,4.28
2023-03-27T04:45:15.002Z,4.41
2023-03-27T04:47:42.704Z,4.28
2023-03-27T04:50:10.643Z,4.36
2023-03-27T04:52:38.211Z,4.45
2023-03-27T04:55:06.280Z,4.29
2023-03-27T04:57:33.863Z,4.36
2023-03-27T05:00:07.809Z,4.38
2023-03-27T05:02:35.084Z,4.39
2023-03-27T05:05:02.848Z,4.38
2023-03-27T05:07:30.480Z,4.50
2023-03-27T05:09:58.185Z,4.46
2023-03-27T05:12:25.465Z,4.45
2023-03-27T05:14:52.763Z,4.44
2023-03-27T05:17:21.493Z,4.44
2023-03-27T05:19:49.230Z,4.42
2023-03-27T05:22:16.859Z,4.27
2023-03-27T05:24:44.159Z,4.39
2023-03-27T05:27:11.722Z,4.49
2023-03-27T05:29:47.404Z,4.41
2023-03-27T05:32:15.334Z,4.29
2023-03-27T05:34:44.014Z,4.30
2023-03-27T05:37:11.288Z,4.26
2023-03-27T05:39:38.560Z,4.35
2023-03-27T05:42:05.934Z,4.34
2023-03-27T05:44:33.228Z,4.28
2023-03-27T05:47:01.105Z,4.34
2023-03-27T05:49:28.417Z,4.45
2023-03-27T05:51:58.086Z,4.26
2023-03-27T05:54:25.659Z,4.23
2023-03-27T05:56:53.014Z,4.33
2023-03-27T05:59:20.351Z,4.27
2023-03-27T06:01:48.961Z,4.17
2023-03-27T06:04:17.198Z,4.21
2023-03-27T06:06:44.613Z,4.25
2023-03-27T06:09:13.532Z,4.24
2023-03-27T06:11:40.970Z,4.19
2023-03-27T06:14:08.401Z,4.33
2023-03-27T06:16:35.681Z,4.17
2023-03-27T06:19:02.953Z,4.23
2023-03-27T06:21:30.202Z,4.21
2023-03-27T06:23:57.504Z,4.13
2023-03-27T06:26:27.810Z,4.06
2023-03-27T06:28:56.194Z,4.09
2023-03-27T06:31:23.703Z,4.33
2023-03-27T06:33:50.997Z,4.37
2023-03-27T06:36:18.370Z,4.59
2023-03-27T06:38:45.843Z,4.64
2023-03-27T06:41:13.647Z,4.66
2023-03-27T06:43:42.227Z,4.52
2023-03-27T06:46:09.946Z,4.70
2023-03-27T06:48:37.662Z,4.37
2023-03-27T06:51:05.209Z,4.59
2023-03-27T06:53:37.432Z,4.59
2023-03-27T06:56:05.819Z,4.62
2023-03-27T06:58:33.110Z,4.34
2023-03-27T07:01:01.758Z,4.42
2023-03-27T07:03:29.079Z,4.33
2023-03-27T07:05:56.886Z,4.65
2023-03-27T07:08:25.550Z,4.76
2023-03-27T07:11:09.792Z,4.74
2023-03-27T07:13:40.849Z,4.71
2023-03-27T07:16:10.566Z,4.51
2023-03-27T07:18:37.888Z,4.69
2023-03-27T07:21:05.937Z,4.91
2023-03-27T07:23:33.209Z,4.91
2023-03-27T07:26:01.134Z,5.05
2023-03-27T07:28:28.625Z,5.07
2023-03-27T07:30:56.227Z,4.48
2023-03-27T07:33:25.227Z,4.66
2023-03-27T07:35:52.667Z,4.19
2023-03-27T07:38:19.978Z,4.25
2023-03-27T07:40:47.328Z,4.29
2023-03-27T07:43:14.918Z,4.36
2023-03-27T07:45:42.793Z,4.14
2023-03-27T07:48:12.060Z,4.49
2023-03-27T07:50:40.658Z,4.35
2023-03-27T07:53:07.936Z,4.52
2023-03-27T07:55:37.588Z,4.68
2023-03-27T07:58:06.831Z,4.99
2023-03-27T08:00:35.929Z,5.12
2023-03-27T08:03:07.560Z,4.90
2023-03-27T08:05:35.620Z,4.83
2023-03-27T08:08:04.816Z,4.80
2023-03-27T08:10:32.083Z,4.89
2023-03-27T08:12:59.353Z,5.02
2023-03-27T08:15:26.680Z,4.87
2023-03-27T08:17:56.752Z,4.60
2023-03-27T08:20:24.583Z,4.74
2023-03-27T08:22:52.452Z,4.65
2023-03-27T08:25:22.526Z,4.93
2023-03-27T08:27:50.561Z,4.91
2023-03-27T08:30:18.950Z,4.92
2023-03-27T08:32:46.466Z,5.04
2023-03-27T08:35:14.341Z,5.38
2023-03-27T08:37:42.248Z,5.70
2023-03-27T08:40:17.686Z,6.03
2023-03-27T08:42:47.343Z,6.65
2023-03-27T08:45:19.301Z,6.21
2023-03-27T08:47:50.398Z,5.90
2023-03-27T08:50:32.445Z,5.63
2023-03-27T08:53:00.461Z,5.73
2023-03-27T08:55:34.562Z,5.63
2023-03-27T08:58:03.208Z,5.80
2023-03-27T09:00:35.315Z,5.59
2023-03-27T09:03:07.430Z,5.87
2023-03-27T09:05:42.450Z,5.50
2023-03-27T09:08:14.982Z,5.61
2023-03-27T09:10:46.346Z,5.62
2023-03-27T09:13:17.899Z,6.00
2023-03-27T09:15:49.638Z,6.29
2023-03-27T09:18:20.274Z,6.56
2023-03-27T09:20:51.366Z,6.79
2023-03-27T09:23:21.753Z,7.16
2023-03-27T09:25:51.419Z,7.71
2023-03-27T09:28:22.561Z,7.75
2023-03-27T09:30:50.607Z,6.85
2023-03-27T09:33:18.116Z,6.25
2023-03-27T09:35:45.618Z,5.91
2023-03-27T09:38:22.489Z,6.06
2023-03-27T09:40:53.271Z,5.80
2023-03-27T09:43:25.031Z,5.87
2023-03-27T09:45:53.862Z,6.01
2023-03-27T09:48:27.288Z,6.57
2023-03-27T09:50:54.719Z,6.99
2023-03-27T09:53:23.020Z,6.82
2023-03-27T09:55:52.821Z,7.01
2023-03-27T09:58:25.793Z,7.43
2023-03-27T10:01:06.932Z,7.27
2023-03-27T10:03:37.671Z,7.22
2023-03-27T10:06:08.744Z,7.08
2023-03-27T10:08:38.764Z,6.48
2023-03-27T10:11:07.842Z,6.59
2023-03-27T10:13:36.589Z,6.72
2023-03-27T10:16:05.985Z,6.51
2023-03-27T10:18:34.801Z,6.45
2023-03-27T10:21:06.093Z,5.77
2023-03-27T10:23:41.804Z,5.78
2023-03-27T10:26:09.659Z,5.85
2023-03-27T10:28:39.210Z,6.06
2023-03-27T10:31:08.373Z,6.23
2023-03-27T10:33:37.328Z,6.71
2023-03-27T10:36:05.899Z,6.85
2023-03-27T10:38:34.168Z,6.74
2023-03-27T10:41:04.235Z,6.36
2023-03-27T10:43:33.437Z,6.27
2023-03-27T10:46:04.966Z,6.62
2023-03-27T10:48:38.542Z,7.25
2023-03-27T10:51:07.623Z,7.06
2023-03-27T10:53:39.127Z,7.52
2023-03-27T10:56:10.745Z,7.62
2023-03-27T10:58:43.034Z,7.36
2023-03-27T11:01:17.973Z,7.65
2023-03-27T11:03:50.027Z,7.70
2023-03-27T11:06:18.439Z,7.93
2023-03-27T11:08:53.012Z,7.58
2023-03-27T11:11:22.491Z,7.35
2023-03-27T11:13:49.952Z,7.58
2023-03-27T11:16:21.878Z,8.10
2023-03-27T11:18:51.218Z,8.28
2023-03-27T11:21:20.732Z,7.55
2023-03-27T11:23:50.397Z,7.17
2023-03-27T11:26:18.933Z,7.07
2023-03-27T11:28:51.405Z,7.29
2023-03-27T11:31:28.427Z,7.32
2023-03-27T11:34:00.029Z,7.22
2023-03-27T11:36:30.572Z,7.57
2023-03-27T11:39:13.564Z,7.51
2023-03-27T11:41:41.008Z,7.80
2023-03-27T11:44:09.438Z,7.73
2023-03-27T11:46:49.239Z,7.78
2023-03-27T11:49:25.312Z,7.55
2023-03-27T11:52:00.449Z,7.59
2023-03-27T11:54:35.959Z,7.94
2023-03-27T11:57:07.057Z,7.58
2023-03-27T11:59:43.493Z,7.47
2023-03-27T12:02:23.382Z,7.09
2023-03-27T12:04:54.584Z,6.37
2023-03-27T12:07:36.030Z,6.61
2023-03-27T12:10:15.912Z,7.06
2023-03-27T12:13:02.272Z,7.52
2023-03-27T12:15:51.782Z,7.91
2023-03-27T12:18:35.800Z,8.04
2023-03-27T12:21:13.556Z,8.20
2023-03-27T12:23:49.883Z,8.46
2023-03-27T12:26:25.924Z,8.42
2023-03-27T12:28:59.825Z,8.45
2023-03-27T12:31:32.200Z,8.45
2023-03-27T12:34:03.093Z,8.62
2023-03-27T12:36:33.912Z,8.53
2023-03-27T12:39:01.276Z,8.79
2023-03-27T12:41:31.062Z,8.97
2023-03-27T12:43:59.330Z,8.95
2023-03-27T12:46:34.508Z,8.85
2023-03-27T12:49:06.455Z,8.80
2023-03-27T12:51:39.075Z,8.84
2023-03-27T12:54:23.686Z,8.68
2023-03-27T12:56:52.027Z,8.93
2023-03-27T12:59:20.995Z,9.07
2023-03-27T13:02:01.895Z,9.12
2023-03-27T13:04:43.089Z,9.07
2023-03-27T13:07:13.777Z,8.99
2023-03-27T13:09:54.063Z,8.67
2023-03-27T13:12:32.037Z,8.67
2023-03-27T13:15:06.590Z,8.66
2023-03-27T13:17:41.609Z,8.51
2023-03-27T13:20:17.077Z,8.54
2023-03-27T13:22:53.149Z,8.30
2023-03-27T13:25:26.196Z,8.16
2023-03-27T13:28:11.376Z,7.99
2023-03-27T13:30:46.530Z,7.69
2023-03-27T13:33:16.905Z,7.79
2023-03-27T13:35:53.628Z,7.70
2023-03-27T13:38:36.170Z,7.79
2023-03-27T13:41:18.350Z,7.67
2023-03-27T13:43:47.258Z,8.03
2023-03-27T13:46:18.994Z,8.02
2023-03-27T13:48:58.348Z,8.36
2023-03-27T13:51:44.463Z,8.56
2023-03-27T13:54:30.573Z,8.63
2023-03-27T13:57:01.545Z,7.97
2023-03-27T13:59:39.778Z,7.71
2023-03-27T14:02:27.020Z,7.18
2023-03-27T14:05:04.455Z,6.82
2023-03-27T14:07:55.192Z,6.52
2023-03-27T14:10:35.478Z,6.40
2023-03-27T14:13:15.631Z,6.22
2023-03-27T14:15:48.126Z,6.19
2023-03-27T14:18:30.994Z,5.82
2023-03-27T14:21:00.510Z,5.82
2023-03-27T14:23:30.641Z,5.51
2023-03-27T14:26:01.796Z,5.59
2023-03-27T14:28:31.576Z,5.54
2023-03-27T14:31:01.094Z,5.62
2023-03-27T14:33:28.767Z,5.50
2023-03-27T14:35:57.570Z,5.59
2023-03-27T14:38:25.919Z,5.33
2023-03-27T14:40:57.709Z,5.11
2023-03-27T14:43:27.511Z,5.13
2023-03-27T14:45:56.307Z,5.05
2023-03-27T14:48:26.108Z,5.20
2023-03-27T14:50:55.066Z,5.12
2023-03-27T14:53:26.459Z,5.28
2023-03-27T14:55:55.226Z,5.43
2023-03-27T14:58:25.554Z,5.43
2023-03-27T15:00:54.248Z,5.42
2023-03-27T15:03:24.486Z,5.70
2023-03-27T15:05:57.382Z,5.74
2023-03-27T15:08:26.622Z,5.69
2023-03-27T15:10:54.502Z,5.87
2023-03-27T15:13:26.468Z,5.86
2023-03-27T15:15:56.718Z,5.82
2023-03-27T15:18:28.198Z,5.70
2023-03-27T15:20:57.636Z,5.63
2023-03-27T15:23:28.385Z,6.02
2023-03-27T15:25:58.336Z,6.03
2023-03-27T15:28:29.968Z,5.90
2023-03-27T15:30:59.042Z,5.80
2023-03-27T15:33:33.959Z,5.91
2023-03-27T15:36:03.827Z,6.02
2023-03-27T15:38:33.073Z,6.10
2023-03-27T15:41:02.090Z,5.81
2023-03-27T15:43:31.362Z,5.55
2023-03-27T15:46:03.003Z,5.69
2023-03-27T15:48:32.217Z,5.67
2023-03-27T15:51:00.431Z,5.65
2023-03-27T15:53:31.597Z,5.52
2023-03-27T15:55:59.941Z,5.51
2023-03-27T15:58:29.632Z,5.40
2023-03-27T16:01:00.930Z,5.47
2023-03-27T16:03:31.162Z,5.17
2023-03-27T16:05:59.366Z,5.29
2023-03-27T16:08:29.662Z,5.30
2023-03-27T16:10:58.386Z,5.57
2023-03-27T16:13:27.215Z,5.61
2023-03-27T16:15:58.932Z,5.71
2023-03-27T16:18:30.903Z,5.57
2023-03-27T16:21:06.716Z,5.49
2023-03-27T16:23:34.128Z,5.52
2023-03-27T16:26:02.138Z,5.56
2023-03-27T16:28:30.495Z,5.43
2023-03-27T16:30:58.612Z,5.36
2023-03-27T16:33:27.788Z,5.21
2023-03-27T16:35:57.116Z,5.22
2023-03-27T16:38:24.699Z,5.26
2023-03-27T16:40:52.236Z,5.02
2023-03-27T16:43:19.825Z,5.11
2023-03-27T16:45:47.222Z,5.01
2023-03-27T16:48:14.587Z,5.12
2023-03-27T16:50:41.986Z,5.17
2023-03-27T16:53:11.118Z,5.09
2023-03-27T16:55:38.364Z,5.19
2023-03-27T16:58:05.684Z,5.09
2023-03-27T17:00:33.118Z,5.12
2023-03-27T17:03:00.764Z,5.26
2023-03-27T17:05:35.532Z,5.00
2023-03-27T17:08:05.356Z,5.05
2023-03-27T17:10:35.461Z,5.17
2023-03-27T17:13:03.042Z,4.96
2023-03-27T17:15:30.287Z,4.94
2023-03-27T17:17:57.612Z,5.02
2023-03-27T17:20:24.933Z,5.19
2023-03-27T17:22:55.702Z,5.00
2023-03-27T17:25:23.390Z,5.08
2023-03-27T17:27:51.990Z,4.76
2023-03-27T17:30:30.537Z,4.41
2023-03-27T17:33:04.961Z,3.83
2023-03-27T17:35:32.388Z,3.34
2023-03-27T17:37:59.699Z,3.02
2023-03-27T17:40:26.944Z,3.18
2023-03-27T17:42:55.520Z,3.05
2023-03-27T17:45:23.741Z,2.88
2023-03-27T17:47:51.159Z,2.92
2023-03-27T17:50:18.570Z,2.94
2023-03-27T17:52:45.968Z,3.00
2023-03-27T17:55:13.229Z,3.14
2023-03-27T17:57:41.574Z,2.95
2023-03-27T18:00:11.602Z,3.01
2023-03-27T18:02:39.275Z,2.90
2023-03-27T18:05:07.315Z,2.49
2023-03-27T18:07:34.872Z,2.64
2023-03-27T18:10:02.150Z,2.87
2023-03-27T18:12:29.757Z,2.82
2023-03-27T18:14:56.999Z,2.49
2023-03-27T18:17:26.000Z,2.64
2023-03-27T18:19:53.276Z,2.54
2023-03-27T18:22:20.849Z,2.47
2023-03-27T18:24:48.466Z,2.33
2023-03-27T18:27:16.932Z,2.45
2023-03-27T18:29:44.210Z,2.45
2023-03-27T18:32:11.920Z,2.28
2023-03-27T18:34:41.255Z,2.60
2023-03-27T18:37:08.538Z,2.32
2023-03-27T18:39:37.453Z,2.39
2023-03-27T18:42:04.919Z,2.20
2023-03-27T18:44:32.490Z,2.08
2023-03-27T18:47:03.486Z,2.37
2023-03-27T18:49:30.755Z,2.43
2023-03-27T18:51:59.366Z,2.27
2023-03-27T18:54:26.627Z,2.25
2023-03-27T18:56:54.050Z,2.52
2023-03-27T18:59:22.668Z,2.56
2023-03-27T19:01:49.976Z,2.55
2023-03-27T19:04:18.872Z,2.43
2023-03-27T19:06:47.119Z,2.21
2023-03-27T19:09:16.189Z,2.48
2023-03-27T19:11:44.056Z,2.52
2023-03-27T19:14:12.020Z,2.37
2023-03-27T19:16:39.329Z,2.61
2023-03-27T19:19:06.640Z,2.70
2023-03-27T19:21:33.917Z,2.75
2023-03-27T19:24:01.286Z,2.27
2023-03-27T19:26:29.882Z,2.17
2023-03-27T19:28:57.567Z,2.33
2023-03-27T19:31:25.064Z,2.34
2023-03-27T19:33:52.465Z,2.17
2023-03-27T19:36:20.601Z,2.41
2023-03-27T19:38:47.904Z,2.53
2023-03-27T19:41:15.365Z,2.42
2023-03-27T19:43:44.316Z,2.58
2023-03-27T19:48:42.081Z,2.64
2023-03-27T19:51:09.426Z,2.51
2023-03-27T19:53:37.730Z,2.66
2023-03-27T19:56:07.447Z,2.35
2023-03-27T19:58:34.738Z,2.35
2023-03-27T20:01:04.563Z,2.38
2023-03-27T20:03:33.545Z,2.35
2023-03-27T20:06:06.524Z,2.54
2023-03-27T20:08:37.865Z,2.33
2023-03-27T20:11:06.693Z,2.42
2023-03-27T20:13:42.394Z,2.51
2023-03-27T20:16:19.480Z,2.44
2023-03-27T20:18:55.106Z,2.61
2023-03-27T20:21:24.629Z,2.53
2023-03-27T20:23:54.405Z,2.27
2023-03-27T20:26:22.374Z,2.28
2023-03-27T20:28:49.953Z,2.28
2023-03-27T20:31:19.228Z,2.40
2023-03-27T20:33:46.668Z,2.33
2023-03-27T20:36:14.908Z,2.20
2023-03-27T20:38:42.238Z,2.54
2023-03-27T20:41:10.724Z,2.45
2023-03-27T20:43:38.992Z,2.42
2023-03-27T20:46:06.852Z,2.30
2023-03-27T20:48:41.641Z,2.22
2023-03-27T20:51:14.481Z,2.38
2023-03-27T20:53:42.463Z,2.35
2023-03-27T20:56:12.219Z,2.36
2023-03-27T20:58:40.427Z,2.32
2023-03-27T21:01:09.042Z,2.41
2023-03-27T21:03:38.647Z,2.42
2023-03-27T21:06:06.548Z,2.49
2023-03-27T21:08:34.433Z,2.43
2023-03-27T21:11:01.841Z,2.54
2023-03-27T21:13:29.301Z,2.69
2023-03-27T21:15:56.905Z,2.82
2023-03-27T21:18:24.363Z,2.93
2023-03-27T21:20:53.437Z,3.04
2023-03-27T21:23:21.821Z,2.95
2023-03-27T21:25:50.528Z,3.07
2023-03-27T21:28:17.803Z,3.17
2023-03-27T21:30:46.322Z,3.17
2023-03-27T21:33:15.864Z,3.17
2023-03-27T21:35:45.466Z,3.25
2023-03-27T21:38:15.412Z,3.22
2023-03-27T21:40:42.861Z,3.24
2023-03-27T21:43:10.390Z,3.32
2023-03-27T21:45:37.791Z,3.14
2023-03-27T21:48:05.475Z,3.03
2023-03-27T21:50:32.792Z,3.06
2023-03-27T21:53:00.209Z,2.90
2023-03-27T21:55:28.787Z,3.03
2023-03-27T21:57:56.044Z,2.86
2023-03-27T22:00:23.326Z,2.89
2023-03-27T22:02:50.737Z,3.05
2023-03-27T22:05:18.073Z,3.09
2023-03-27T22:07:45.733Z,3.22
2023-03-27T22:10:13.262Z,3.12
2023-03-27T22:12:42.215Z,3.19
2023-03-27T22:15:10.040Z,3.10
2023-03-27T22:17:37.772Z,3.26
2023-03-27T22:20:05.645Z,3.04
2023-03-27T22:22:34.572Z,3.09
2023-03-27T22:25:01.976Z,3.05
2023-03-27T22:27:29.256Z,3.00
2023-03-27T22:29:57.835Z,2.93
2023-03-27T22:32:25.494Z,2.97
2023-03-27T22:34:52.844Z,2.91
2023-03-27T22:37:20.694Z,2.87
2023-03-27T22:39:48.390Z,2.80
2023-03-27T22:42:15.933Z,2.71
2023-03-27T22:44:43.191Z,2.84
2023-03-27T22:47:11.810Z,2.74
2023-03-27T22:49:39.119Z,2.77
2023-03-27T22:52:06.906Z,2.78
2023-03-27T22:54:34.180Z,2.93
2023-03-27T22:57:01.952Z,3.03
2023-03-27T22:59:29.360Z,2.98
2023-03-27T23:01:56.757Z,2.94
2023-03-27T23:04:25.863Z,2.92
2023-03-27T23:06:53.100Z,3.01
2023-03-27T23:09:20.390Z,3.08
2023-03-27T23:11:48.028Z,3.10
2023-03-27T23:14:15.315Z,3.16
2023-03-27T23:16:42.561Z,3.17
2023-03-27T23:19:09.968Z,3.16
2023-03-27T23:21:40.622Z,3.19
2023-03-27T23:24:08.139Z,3.25
2023-03-27T23:26:35.534Z,3.26
2023-03-27T23:29:02.808Z,3.17
2023-03-27T23:31:30.286Z,3.30
2023-03-27T23:33:57.606Z,3.29
2023-03-27T23:36:25.606Z,3.25
2023-03-27T23:38:54.726Z,3.13
2023-03-27T23:41:22.386Z,3.23
2023-03-27T23:43:49.779Z,3.26
2023-03-27T23:46:17.579Z,3.18
2023-03-27T23:48:45.448Z,3.25
2023-03-27T23:51:14.401Z,3.20
2023-03-27T23:53:42.083Z,3.27
2023-03-27T23:56:11.048Z,3.06
2023-03-27T23:58:38.519Z,3.12
